sensor_id;sensor_type;location;lat;lon;timestamp;pressure;altitude;pressure_sealevel;temperature;humidity
41230;BME280;26964;50.428;19.218;2023-06-26T00:00:14;1019.7;;;14.2;58.8
41230;BME280;26964;50.428;19.218;2023-06-26T00:01:14;1019.6;;;14.1;58.8
41230;BME280;26964;50.428;19.218;2023-06-26T00:02:13;1019.7;;;14.1;58.9
41230;BME280;26964;50.428;19.218;2023-06-26T00:03:13;1019.6;;;14.1;58.9
41230;BME280;26964;50.428;19.218;2023-06-26T00:04:14;1019.6;;;14.1;59.0
41230;BME280;26964;50.428;19.218;2023-06-26T00:05:14;1019.6;;;14.1;59.1
41230;BME280;26964;50.428;19.218;2023-06-26T00:06:13;1019.7;;;14.1;59.1
41230;BME280;26964;50.428;19.218;2023-06-26T00:07:14;1019.6;;;14.1;59.2
41230;BME280;26964;50.428;19.218;2023-06-26T00:08:14;1019.7;;;14.1;59.2
41230;BME280;26964;50.428;19.218;2023-06-26T00:09:14;1019.7;;;14.1;59.2
41230;BME280;26964;50.428;19.218;2023-06-26T00:10:14;1019.7;;;14.0;59.3
41230;BME280;26964;50.428;19.218;2023-06-26T00:11:14;1019.7;;;14.0;59.4
41230;BME280;26964;50.428;19.218;2023-06-26T00:12:14;1019.7;;;14.0;59.4
41230;BME280;26964;50.428;19.218;2023-06-26T00:13:13;1019.7;;;14.0;59.5
41230;BME280;26964;50.428;19.218;2023-06-26T00:14:13;1019.7;;;14.0;59.5
41230;BME280;26964;50.428;19.218;2023-06-26T00:15:13;1019.7;;;14.0;59.6
41230;BME280;26964;50.428;19.218;2023-06-26T00:16:13;1019.7;;;14.0;59.6
41230;BME280;26964;50.428;19.218;2023-06-26T00:17:15;1019.7;;;14.0;59.6
41230;BME280;26964;50.428;19.218;2023-06-26T00:18:13;1019.7;;;14.0;59.7
41230;BME280;26964;50.428;19.218;2023-06-26T00:19:14;1019.7;;;14.0;59.8
41230;BME280;26964;50.428;19.218;2023-06-26T00:20:13;1019.7;;;13.9;59.7
41230;BME280;26964;50.428;19.218;2023-06-26T00:21:14;1019.7;;;13.9;59.8
41230;BME280;26964;50.428;19.218;2023-06-26T00:22:13;1019.7;;;13.9;59.8
41230;BME280;26964;50.428;19.218;2023-06-26T00:23:13;1019.7;;;13.9;59.8
41230;BME280;26964;50.428;19.218;2023-06-26T00:24:13;1019.7;;;13.9;59.9
41230;BME280;26964;50.428;19.218;2023-06-26T00:25:14;1019.7;;;13.9;60.0
41230;BME280;26964;50.428;19.218;2023-06-26T00:26:14;1019.7;;;13.8;60.0
41230;BME280;26964;50.428;19.218;2023-06-26T00:27:13;1019.8;;;13.8;60.1
41230;BME280;26964;50.428;19.218;2023-06-26T00:28:14;1019.7;;;13.8;60.2
41230;BME280;26964;50.428;19.218;2023-06-26T00:29:14;1019.7;;;13.8;60.2
41230;BME280;26964;50.428;19.218;2023-06-26T00:30:13;1019.7;;;13.8;60.3
41230;BME280;26964;50.428;19.218;2023-06-26T00:31:13;1019.7;;;13.8;60.3
41230;BME280;26964;50.428;19.218;2023-06-26T00:32:14;1019.8;;;13.8;60.4
41230;BME280;26964;50.428;19.218;2023-06-26T00:33:14;1019.8;;;13.8;60.4
41230;BME280;26964;50.428;19.218;2023-06-26T00:34:13;1019.7;;;13.7;60.5
41230;BME280;26964;50.428;19.218;2023-06-26T00:35:13;1019.8;;;13.7;60.5
41230;BME280;26964;50.428;19.218;2023-06-26T00:36:13;1019.7;;;13.7;60.6
41230;BME280;26964;50.428;19.218;2023-06-26T00:37:13;1019.7;;;13.7;60.6
41230;BME280;26964;50.428;19.218;2023-06-26T00:38:13;1019.7;;;13.7;60.6
41230;BME280;26964;50.428;19.218;2023-06-26T00:39:16;1019.7;;;13.7;60.6
41230;BME280;26964;50.428;19.218;2023-06-26T00:40:14;1019.7;;;13.7;60.7
41230;BME280;26964;50.428;19.218;2023-06-26T00:41:14;1019.8;;;13.7;60.7
41230;BME280;26964;50.428;19.218;2023-06-26T00:42:13;1019.8;;;13.7;60.7
41230;BME280;26964;50.428;19.218;2023-06-26T00:43:13;1019.7;;;13.7;60.7
41230;BME280;26964;50.428;19.218;2023-06-26T00:44:13;1019.7;;;13.7;60.7
41230;BME280;26964;50.428;19.218;2023-06-26T00:45:13;1019.7;;;13.7;60.8
41230;BME280;26964;50.428;19.218;2023-06-26T00:46:13;1019.7;;;13.7;60.9
41230;BME280;26964;50.428;19.218;2023-06-26T00:47:15;1019.6;;;13.7;60.9
41230;BME280;26964;50.428;19.218;2023-06-26T00:48:13;1019.6;;;13.7;60.9
41230;BME280;26964;50.428;19.218;2023-06-26T00:49:13;1019.7;;;13.7;60.9
41230;BME280;26964;50.428;19.218;2023-06-26T00:50:13;1019.7;;;13.7;60.9
41230;BME280;26964;50.428;19.218;2023-06-26T00:51:13;1019.6;;;13.7;60.9
41230;BME280;26964;50.428;19.218;2023-06-26T00:52:13;1019.7;;;13.7;61.0
41230;BME280;26964;50.428;19.218;2023-06-26T00:53:13;1019.7;;;13.7;61.0
41230;BME280;26964;50.428;19.218;2023-06-26T00:54:13;1019.7;;;13.7;61.0
41230;BME280;26964;50.428;19.218;2023-06-26T00:55:13;1019.7;;;13.7;61.0
41230;BME280;26964;50.428;19.218;2023-06-26T00:56:13;1019.7;;;13.7;61.0
41230;BME280;26964;50.428;19.218;2023-06-26T00:57:13;1019.7;;;13.7;61.0
41230;BME280;26964;50.428;19.218;2023-06-26T00:58:13;1019.6;;;13.7;61.1
41230;BME280;26964;50.428;19.218;2023-06-26T00:59:13;1019.7;;;13.6;61.1
41230;BME280;26964;50.428;19.218;2023-06-26T01:00:16;1019.7;;;13.6;61.1
41230;BME280;26964;50.428;19.218;2023-06-26T01:01:13;1019.7;;;13.6;61.2
41230;BME280;26964;50.428;19.218;2023-06-26T01:02:13;1019.7;;;13.6;61.2
41230;BME280;26964;50.428;19.218;2023-06-26T01:03:13;1019.7;;;13.6;61.2
41230;BME280;26964;50.428;19.218;2023-06-26T01:04:13;1019.7;;;13.6;61.2
41230;BME280;26964;50.428;19.218;2023-06-26T01:05:13;1019.7;;;13.6;61.2
41230;BME280;26964;50.428;19.218;2023-06-26T01:06:14;1019.7;;;13.6;61.2
41230;BME280;26964;50.428;19.218;2023-06-26T01:07:13;1019.7;;;13.6;61.2
41230;BME280;26964;50.428;19.218;2023-06-26T01:08:13;1019.6;;;13.5;61.2
41230;BME280;26964;50.428;19.218;2023-06-26T01:09:13;1019.6;;;13.5;61.3
41230;BME280;26964;50.428;19.218;2023-06-26T01:10:13;1019.6;;;13.4;61.3
41230;BME280;26964;50.428;19.218;2023-06-26T01:11:13;1019.6;;;13.4;61.4
41230;BME280;26964;50.428;19.218;2023-06-26T01:12:13;1019.6;;;13.4;61.4
41230;BME280;26964;50.428;19.218;2023-06-26T01:13:13;1019.6;;;13.4;61.4
41230;BME280;26964;50.428;19.218;2023-06-26T01:14:13;1019.6;;;13.4;61.5
41230;BME280;26964;50.428;19.218;2023-06-26T01:15:13;1019.6;;;13.4;61.5
41230;BME280;26964;50.428;19.218;2023-06-26T01:16:14;1019.6;;;13.4;61.6
41230;BME280;26964;50.428;19.218;2023-06-26T01:17:13;1019.7;;;13.4;61.7
41230;BME280;26964;50.428;19.218;2023-06-26T01:18:13;1019.6;;;13.3;61.7
41230;BME280;26964;50.428;19.218;2023-06-26T01:19:17;1019.6;;;13.3;61.7
41230;BME280;26964;50.428;19.218;2023-06-26T01:20:14;1019.6;;;13.3;61.7
41230;BME280;26964;50.428;19.218;2023-06-26T01:21:13;1019.6;;;13.3;61.7
41230;BME280;26964;50.428;19.218;2023-06-26T01:22:19;1019.6;;;13.3;61.7
41230;BME280;26964;50.428;19.218;2023-06-26T01:23:20;1019.6;;;13.3;61.8
41230;BME280;26964;50.428;19.218;2023-06-26T01:24:17;1019.6;;;13.3;61.8
41230;BME280;26964;50.428;19.218;2023-06-26T01:25:20;1019.5;;;13.3;61.8
41230;BME280;26964;50.428;19.218;2023-06-26T01:26:17;1019.5;;;13.3;61.8
41230;BME280;26964;50.428;19.218;2023-06-26T01:27:13;1019.5;;;13.3;61.9
41230;BME280;26964;50.428;19.218;2023-06-26T01:28:13;1019.5;;;13.2;61.9
41230;BME280;26964;50.428;19.218;2023-06-26T01:29:14;1019.5;;;13.2;61.9
41230;BME280;26964;50.428;19.218;2023-06-26T01:30:13;1019.5;;;13.2;62.0
41230;BME280;26964;50.428;19.218;2023-06-26T01:31:14;1019.5;;;13.2;62.0
41230;BME280;26964;50.428;19.218;2023-06-26T01:32:13;1019.5;;;13.2;62.0
41230;BME280;26964;50.428;19.218;2023-06-26T01:33:13;1019.4;;;13.2;62.1
41230;BME280;26964;50.428;19.218;2023-06-26T01:34:13;1019.4;;;13.2;62.1
41230;BME280;26964;50.428;19.218;2023-06-26T01:35:13;1019.4;;;13.2;62.1
41230;BME280;26964;50.428;19.218;2023-06-26T01:36:12;1019.4;;;13.1;62.2
41230;BME280;26964;50.428;19.218;2023-06-26T01:37:13;1019.4;;;13.1;62.2
41230;BME280;26964;50.428;19.218;2023-06-26T01:38:14;1019.4;;;13.1;62.2
41230;BME280;26964;50.428;19.218;2023-06-26T01:39:15;1019.4;;;13.1;62.2
41230;BME280;26964;50.428;19.218;2023-06-26T01:40:13;1019.4;;;13.1;62.2
41230;BME280;26964;50.428;19.218;2023-06-26T01:41:13;1019.4;;;13.1;62.3
41230;BME280;26964;50.428;19.218;2023-06-26T01:42:13;1019.4;;;13.1;62.3
41230;BME280;26964;50.428;19.218;2023-06-26T01:43:19;1019.4;;;13.1;62.3
41230;BME280;26964;50.428;19.218;2023-06-26T01:45:18;1019.3;;;13.0;62.4
41230;BME280;26964;50.428;19.218;2023-06-26T01:46:17;1019.4;;;13.0;62.4
41230;BME280;26964;50.428;19.218;2023-06-26T01:47:17;1019.4;;;13.1;62.5
41230;BME280;26964;50.428;19.218;2023-06-26T01:48:14;1019.4;;;13.0;62.5
41230;BME280;26964;50.428;19.218;2023-06-26T01:49:18;1019.5;;;13.0;62.5
41230;BME280;26964;50.428;19.218;2023-06-26T01:50:17;1019.3;;;13.0;62.6
41230;BME280;26964;50.428;19.218;2023-06-26T01:51:14;1019.3;;;13.0;62.6
41230;BME280;26964;50.428;19.218;2023-06-26T01:52:19;1019.4;;;13.0;62.7
41230;BME280;26964;50.428;19.218;2023-06-26T01:53:17;1019.3;;;13.1;62.8
41230;BME280;26964;50.428;19.218;2023-06-26T01:54:17;1019.4;;;13.1;62.8
41230;BME280;26964;50.428;19.218;2023-06-26T01:55:17;1019.4;;;13.1;62.8
41230;BME280;26964;50.428;19.218;2023-06-26T01:56:13;1019.4;;;13.1;62.7
41230;BME280;26964;50.428;19.218;2023-06-26T01:57:13;1019.4;;;13.1;62.7
41230;BME280;26964;50.428;19.218;2023-06-26T01:58:13;1019.4;;;13.1;62.8
41230;BME280;26964;50.428;19.218;2023-06-26T01:59:14;1019.4;;;13.1;62.8
41230;BME280;26964;50.428;19.218;2023-06-26T02:00:14;1019.3;;;13.1;62.8
41230;BME280;26964;50.428;19.218;2023-06-26T02:01:13;1019.3;;;13.1;62.8
41230;BME280;26964;50.428;19.218;2023-06-26T02:02:13;1019.4;;;13.1;62.8
41230;BME280;26964;50.428;19.218;2023-06-26T02:03:14;1019.3;;;13.1;62.8
41230;BME280;26964;50.428;19.218;2023-06-26T02:04:16;1019.3;;;13.1;62.8
41230;BME280;26964;50.428;19.218;2023-06-26T02:05:13;1019.3;;;13.1;62.9
41230;BME280;26964;50.428;19.218;2023-06-26T02:06:13;1019.3;;;13.0;62.9
41230;BME280;26964;50.428;19.218;2023-06-26T02:07:14;1019.2;;;13.0;62.9
41230;BME280;26964;50.428;19.218;2023-06-26T02:08:14;1019.3;;;13.0;62.9
41230;BME280;26964;50.428;19.218;2023-06-26T02:09:13;1019.2;;;13.0;63.0
41230;BME280;26964;50.428;19.218;2023-06-26T02:10:13;1019.2;;;13.0;63.0
41230;BME280;26964;50.428;19.218;2023-06-26T02:11:13;1019.3;;;13.0;63.0
41230;BME280;26964;50.428;19.218;2023-06-26T02:12:13;1019.2;;;13.0;63.1
41230;BME280;26964;50.428;19.218;2023-06-26T02:13:14;1019.3;;;13.0;63.1
41230;BME280;26964;50.428;19.218;2023-06-26T02:14:13;1019.3;;;13.0;63.1
41230;BME280;26964;50.428;19.218;2023-06-26T02:15:13;1019.3;;;12.9;63.1
41230;BME280;26964;50.428;19.218;2023-06-26T02:16:13;1019.2;;;12.9;63.2
41230;BME280;26964;50.428;19.218;2023-06-26T02:17:13;1019.2;;;12.9;63.2
41230;BME280;26964;50.428;19.218;2023-06-26T02:18:13;1019.2;;;12.9;63.2
41230;BME280;26964;50.428;19.218;2023-06-26T02:19:13;1019.3;;;12.9;63.2
41230;BME280;26964;50.428;19.218;2023-06-26T02:20:13;1019.3;;;12.9;63.3
41230;BME280;26964;50.428;19.218;2023-06-26T02:21:13;1019.2;;;12.9;63.3
41230;BME280;26964;50.428;19.218;2023-06-26T02:22:13;1019.3;;;12.9;63.3
41230;BME280;26964;50.428;19.218;2023-06-26T02:23:13;1019.2;;;12.9;63.3
41230;BME280;26964;50.428;19.218;2023-06-26T02:24:13;1019.3;;;12.9;63.3
41230;BME280;26964;50.428;19.218;2023-06-26T02:25:14;1019.2;;;12.9;63.4
41230;BME280;26964;50.428;19.218;2023-06-26T02:26:13;1019.2;;;12.9;63.4
41230;BME280;26964;50.428;19.218;2023-06-26T02:27:12;1019.2;;;12.9;63.4
41230;BME280;26964;50.428;19.218;2023-06-26T02:28:13;1019.3;;;12.8;63.4
41230;BME280;26964;50.428;19.218;2023-06-26T02:29:13;1019.2;;;12.8;63.4
41230;BME280;26964;50.428;19.218;2023-06-26T02:30:12;1019.2;;;12.8;63.4
41230;BME280;26964;50.428;19.218;2023-06-26T02:31:13;1019.3;;;12.8;63.5
41230;BME280;26964;50.428;19.218;2023-06-26T02:32:12;1019.3;;;12.8;63.5
41230;BME280;26964;50.428;19.218;2023-06-26T02:33:13;1019.3;;;12.8;63.5
41230;BME280;26964;50.428;19.218;2023-06-26T02:34:13;1019.3;;;12.8;63.5
41230;BME280;26964;50.428;19.218;2023-06-26T02:35:13;1019.3;;;12.8;63.5
41230;BME280;26964;50.428;19.218;2023-06-26T02:36:13;1019.3;;;12.8;63.6
41230;BME280;26964;50.428;19.218;2023-06-26T02:37:13;1019.2;;;12.7;63.6
41230;BME280;26964;50.428;19.218;2023-06-26T02:38:13;1019.3;;;12.7;63.6
41230;BME280;26964;50.428;19.218;2023-06-26T02:39:13;1019.2;;;12.7;63.7
41230;BME280;26964;50.428;19.218;2023-06-26T02:40:13;1019.3;;;12.7;63.7
41230;BME280;26964;50.428;19.218;2023-06-26T02:41:13;1019.3;;;12.7;63.7
41230;BME280;26964;50.428;19.218;2023-06-26T02:42:12;1019.3;;;12.7;63.8
41230;BME280;26964;50.428;19.218;2023-06-26T02:43:13;1019.3;;;12.7;63.8
41230;BME280;26964;50.428;19.218;2023-06-26T02:44:13;1019.2;;;12.6;63.8
41230;BME280;26964;50.428;19.218;2023-06-26T02:45:13;1019.3;;;12.6;63.9
41230;BME280;26964;50.428;19.218;2023-06-26T02:46:14;1019.3;;;12.6;63.9
41230;BME280;26964;50.428;19.218;2023-06-26T02:47:13;1019.2;;;12.6;63.9
41230;BME280;26964;50.428;19.218;2023-06-26T02:48:13;1019.2;;;12.6;63.9
41230;BME280;26964;50.428;19.218;2023-06-26T02:49:13;1019.3;;;12.6;64.0
41230;BME280;26964;50.428;19.218;2023-06-26T02:50:12;1019.2;;;12.6;64.0
41230;BME280;26964;50.428;19.218;2023-06-26T02:51:13;1019.2;;;12.6;64.0
41230;BME280;26964;50.428;19.218;2023-06-26T02:52:13;1019.2;;;12.6;64.1
41230;BME280;26964;50.428;19.218;2023-06-26T02:53:12;1019.3;;;12.6;64.1
41230;BME280;26964;50.428;19.218;2023-06-26T02:54:13;1019.3;;;12.6;64.1
41230;BME280;26964;50.428;19.218;2023-06-26T02:55:13;1019.2;;;12.6;64.1
41230;BME280;26964;50.428;19.218;2023-06-26T02:56:13;1019.3;;;12.6;64.1
41230;BME280;26964;50.428;19.218;2023-06-26T02:57:13;1019.2;;;12.6;64.1
41230;BME280;26964;50.428;19.218;2023-06-26T02:58:13;1019.3;;;12.6;64.2
41230;BME280;26964;50.428;19.218;2023-06-26T02:59:13;1019.3;;;12.6;64.2
41230;BME280;26964;50.428;19.218;2023-06-26T03:00:13;1019.3;;;12.6;64.2
41230;BME280;26964;50.428;19.218;2023-06-26T03:01:13;1019.3;;;12.6;64.2
41230;BME280;26964;50.428;19.218;2023-06-26T03:02:13;1019.3;;;12.6;64.2
41230;BME280;26964;50.428;19.218;2023-06-26T03:03:12;1019.3;;;12.6;64.2
41230;BME280;26964;50.428;19.218;2023-06-26T03:04:13;1019.3;;;12.6;64.2
41230;BME280;26964;50.428;19.218;2023-06-26T03:05:12;1019.3;;;12.6;64.3
41230;BME280;26964;50.428;19.218;2023-06-26T03:06:13;1019.3;;;12.6;64.3
41230;BME280;26964;50.428;19.218;2023-06-26T03:07:12;1019.3;;;12.6;64.3
41230;BME280;26964;50.428;19.218;2023-06-26T03:08:16;1019.3;;;12.6;64.3
41230;BME280;26964;50.428;19.218;2023-06-26T03:09:13;1019.3;;;12.6;64.4
41230;BME280;26964;50.428;19.218;2023-06-26T03:10:12;1019.3;;;12.6;64.4
41230;BME280;26964;50.428;19.218;2023-06-26T03:11:13;1019.3;;;12.6;64.5
41230;BME280;26964;50.428;19.218;2023-06-26T03:12:13;1019.3;;;12.6;64.5
41230;BME280;26964;50.428;19.218;2023-06-26T03:13:13;1019.3;;;12.6;64.5
41230;BME280;26964;50.428;19.218;2023-06-26T03:14:13;1019.3;;;12.6;64.6
41230;BME280;26964;50.428;19.218;2023-06-26T03:15:13;1019.3;;;12.6;64.6
41230;BME280;26964;50.428;19.218;2023-06-26T03:16:13;1019.3;;;12.6;64.6
41230;BME280;26964;50.428;19.218;2023-06-26T03:17:13;1019.3;;;12.6;64.6
41230;BME280;26964;50.428;19.218;2023-06-26T03:18:13;1019.3;;;12.6;64.7
41230;BME280;26964;50.428;19.218;2023-06-26T03:19:13;1019.3;;;12.6;64.7
41230;BME280;26964;50.428;19.218;2023-06-26T03:20:13;1019.4;;;12.6;64.7
41230;BME280;26964;50.428;19.218;2023-06-26T03:21:12;1019.3;;;12.6;64.7
41230;BME280;26964;50.428;19.218;2023-06-26T03:22:13;1019.4;;;12.6;64.8
41230;BME280;26964;50.428;19.218;2023-06-26T03:23:13;1019.3;;;12.7;64.8
41230;BME280;26964;50.428;19.218;2023-06-26T03:24:13;1019.4;;;12.7;64.8
41230;BME280;26964;50.428;19.218;2023-06-26T03:25:12;1019.4;;;12.7;64.9
41230;BME280;26964;50.428;19.218;2023-06-26T03:26:13;1019.3;;;12.7;64.9
41230;BME280;26964;50.428;19.218;2023-06-26T03:27:12;1019.4;;;12.7;64.9
41230;BME280;26964;50.428;19.218;2023-06-26T03:28:12;1019.4;;;12.8;64.9
41230;BME280;26964;50.428;19.218;2023-06-26T03:29:16;1019.4;;;12.8;64.9
41230;BME280;26964;50.428;19.218;2023-06-26T03:30:13;1019.5;;;12.8;65.0
41230;BME280;26964;50.428;19.218;2023-06-26T03:31:12;1019.4;;;12.8;65.0
41230;BME280;26964;50.428;19.218;2023-06-26T03:32:13;1019.4;;;12.8;65.0
41230;BME280;26964;50.428;19.218;2023-06-26T03:33:12;1019.3;;;12.8;65.0
41230;BME280;26964;50.428;19.218;2023-06-26T03:34:13;1019.3;;;12.9;65.0
41230;BME280;26964;50.428;19.218;2023-06-26T03:35:13;1019.5;;;12.9;65.0
41230;BME280;26964;50.428;19.218;2023-06-26T03:36:12;1019.4;;;12.9;65.1
41230;BME280;26964;50.428;19.218;2023-06-26T03:37:13;1019.4;;;12.9;65.1
41230;BME280;26964;50.428;19.218;2023-06-26T03:38:13;1019.3;;;13.0;65.2
41230;BME280;26964;50.428;19.218;2023-06-26T03:39:13;1019.3;;;13.0;65.2
41230;BME280;26964;50.428;19.218;2023-06-26T03:40:13;1019.4;;;13.0;65.2
41230;BME280;26964;50.428;19.218;2023-06-26T03:41:12;1019.4;;;13.0;65.2
41230;BME280;26964;50.428;19.218;2023-06-26T03:42:13;1019.4;;;13.1;65.2
41230;BME280;26964;50.428;19.218;2023-06-26T03:43:12;1019.4;;;13.1;65.3
41230;BME280;26964;50.428;19.218;2023-06-26T03:44:13;1019.4;;;13.1;65.3
41230;BME280;26964;50.428;19.218;2023-06-26T03:45:12;1019.3;;;13.1;65.3
41230;BME280;26964;50.428;19.218;2023-06-26T03:46:13;1019.4;;;13.1;65.3
41230;BME280;26964;50.428;19.218;2023-06-26T03:47:12;1019.4;;;13.2;65.4
41230;BME280;26964;50.428;19.218;2023-06-26T03:48:13;1019.4;;;13.2;65.4
41230;BME280;26964;50.428;19.218;2023-06-26T03:49:13;1019.4;;;13.2;65.4
41230;BME280;26964;50.428;19.218;2023-06-26T03:50:16;1019.5;;;13.3;65.5
41230;BME280;26964;50.428;19.218;2023-06-26T03:51:12;1019.5;;;13.3;65.4
41230;BME280;26964;50.428;19.218;2023-06-26T03:52:13;1019.4;;;13.3;65.5
41230;BME280;26964;50.428;19.218;2023-06-26T03:53:12;1019.4;;;13.4;65.5
41230;BME280;26964;50.428;19.218;2023-06-26T03:54:13;1019.5;;;13.4;65.5
41230;BME280;26964;50.428;19.218;2023-06-26T03:55:13;1019.4;;;13.4;65.5
41230;BME280;26964;50.428;19.218;2023-06-26T03:56:12;1019.4;;;13.4;65.5
41230;BME280;26964;50.428;19.218;2023-06-26T03:57:13;1019.4;;;13.5;65.5
41230;BME280;26964;50.428;19.218;2023-06-26T03:58:13;1019.4;;;13.5;65.5
41230;BME280;26964;50.428;19.218;2023-06-26T03:59:12;1019.3;;;13.5;65.5
41230;BME280;26964;50.428;19.218;2023-06-26T04:00:13;1019.3;;;13.6;65.5
41230;BME280;26964;50.428;19.218;2023-06-26T04:01:13;1019.4;;;13.6;65.6
41230;BME280;26964;50.428;19.218;2023-06-26T04:02:13;1019.4;;;13.6;65.5
41230;BME280;26964;50.428;19.218;2023-06-26T04:03:13;1019.4;;;13.7;65.5
41230;BME280;26964;50.428;19.218;2023-06-26T04:04:12;1019.4;;;13.7;65.6
41230;BME280;26964;50.428;19.218;2023-06-26T04:05:13;1019.4;;;13.8;65.6
41230;BME280;26964;50.428;19.218;2023-06-26T04:06:13;1019.4;;;13.8;65.6
41230;BME280;26964;50.428;19.218;2023-06-26T04:07:13;1019.4;;;13.8;65.6
41230;BME280;26964;50.428;19.218;2023-06-26T04:08:13;1019.4;;;13.9;65.7
41230;BME280;26964;50.428;19.218;2023-06-26T04:09:12;1019.4;;;13.9;65.7
41230;BME280;26964;50.428;19.218;2023-06-26T04:10:13;1019.4;;;14.0;65.7
41230;BME280;26964;50.428;19.218;2023-06-26T04:11:15;1019.4;;;14.0;65.8
41230;BME280;26964;50.428;19.218;2023-06-26T04:12:13;1019.4;;;14.1;65.7
41230;BME280;26964;50.428;19.218;2023-06-26T04:13:13;1019.3;;;14.1;65.8
41230;BME280;26964;50.428;19.218;2023-06-26T04:14:13;1019.3;;;14.1;65.8
41230;BME280;26964;50.428;19.218;2023-06-26T04:15:12;1019.3;;;14.2;65.8
41230;BME280;26964;50.428;19.218;2023-06-26T04:16:13;1019.3;;;14.2;65.8
41230;BME280;26964;50.428;19.218;2023-06-26T04:17:13;1019.3;;;14.3;65.8
41230;BME280;26964;50.428;19.218;2023-06-26T04:18:13;1019.3;;;14.3;65.8
41230;BME280;26964;50.428;19.218;2023-06-26T04:19:12;1019.3;;;14.3;65.7
41230;BME280;26964;50.428;19.218;2023-06-26T04:20:13;1019.4;;;14.4;65.7
41230;BME280;26964;50.428;19.218;2023-06-26T04:21:13;1019.3;;;14.4;65.7
41230;BME280;26964;50.428;19.218;2023-06-26T04:22:12;1019.3;;;14.5;65.7
41230;BME280;26964;50.428;19.218;2023-06-26T04:23:13;1019.3;;;14.5;65.7
41230;BME280;26964;50.428;19.218;2023-06-26T04:24:12;1019.2;;;14.5;65.7
41230;BME280;26964;50.428;19.218;2023-06-26T04:25:13;1019.3;;;14.6;65.8
41230;BME280;26964;50.428;19.218;2023-06-26T04:26:13;1019.3;;;14.6;65.8
41230;BME280;26964;50.428;19.218;2023-06-26T04:27:13;1019.2;;;14.6;65.8
41230;BME280;26964;50.428;19.218;2023-06-26T04:28:12;1019.2;;;14.7;65.8
41230;BME280;26964;50.428;19.218;2023-06-26T04:29:12;1019.3;;;14.7;65.7
41230;BME280;26964;50.428;19.218;2023-06-26T04:30:13;1019.3;;;14.8;65.7
41230;BME280;26964;50.428;19.218;2023-06-26T04:31:13;1019.3;;;14.8;65.8
41230;BME280;26964;50.428;19.218;2023-06-26T04:32:13;1019.2;;;14.8;65.8
41230;BME280;26964;50.428;19.218;2023-06-26T04:33:12;1019.3;;;14.9;65.8
41230;BME280;26964;50.428;19.218;2023-06-26T04:34:13;1019.2;;;14.9;65.8
41230;BME280;26964;50.428;19.218;2023-06-26T04:35:13;1019.2;;;14.9;65.8
41230;BME280;26964;50.428;19.218;2023-06-26T04:36:13;1019.2;;;15.0;65.8
41230;BME280;26964;50.428;19.218;2023-06-26T04:37:12;1019.3;;;15.0;65.8
41230;BME280;26964;50.428;19.218;2023-06-26T04:38:13;1019.3;;;15.0;65.8
41230;BME280;26964;50.428;19.218;2023-06-26T04:39:13;1019.3;;;15.1;65.8
41230;BME280;26964;50.428;19.218;2023-06-26T04:40:12;1019.2;;;15.1;65.8
41230;BME280;26964;50.428;19.218;2023-06-26T04:41:12;1019.3;;;15.2;65.8
41230;BME280;26964;50.428;19.218;2023-06-26T04:42:14;1019.2;;;15.2;65.8
41230;BME280;26964;50.428;19.218;2023-06-26T04:43:13;1019.3;;;15.2;65.8
41230;BME280;26964;50.428;19.218;2023-06-26T04:44:13;1019.4;;;15.3;65.8
41230;BME280;26964;50.428;19.218;2023-06-26T04:45:13;1019.3;;;15.3;65.8
41230;BME280;26964;50.428;19.218;2023-06-26T04:46:13;1019.2;;;15.3;65.8
41230;BME280;26964;50.428;19.218;2023-06-26T04:47:12;1019.2;;;15.3;65.8
41230;BME280;26964;50.428;19.218;2023-06-26T04:48:12;1019.3;;;15.4;65.8
41230;BME280;26964;50.428;19.218;2023-06-26T04:49:13;1019.2;;;15.4;65.8
41230;BME280;26964;50.428;19.218;2023-06-26T04:50:12;1019.3;;;15.4;65.8
41230;BME280;26964;50.428;19.218;2023-06-26T04:51:13;1019.2;;;15.5;65.8
41230;BME280;26964;50.428;19.218;2023-06-26T04:52:13;1019.3;;;15.5;65.8
41230;BME280;26964;50.428;19.218;2023-06-26T04:53:14;1019.3;;;15.5;65.9
41230;BME280;26964;50.428;19.218;2023-06-26T04:54:16;1019.3;;;15.6;65.8
41230;BME280;26964;50.428;19.218;2023-06-26T04:55:13;1019.3;;;15.6;65.8
41230;BME280;26964;50.428;19.218;2023-06-26T04:56:13;1019.3;;;15.6;65.8
41230;BME280;26964;50.428;19.218;2023-06-26T04:57:12;1019.3;;;15.7;65.8
41230;BME280;26964;50.428;19.218;2023-06-26T04:58:12;1019.3;;;15.7;65.8
41230;BME280;26964;50.428;19.218;2023-06-26T04:59:13;1019.3;;;15.7;65.7
41230;BME280;26964;50.428;19.218;2023-06-26T05:00:13;1019.3;;;15.7;65.7
41230;BME280;26964;50.428;19.218;2023-06-26T05:01:13;1019.2;;;15.8;65.7
41230;BME280;26964;50.428;19.218;2023-06-26T05:02:13;1019.3;;;15.8;65.7
41230;BME280;26964;50.428;19.218;2023-06-26T05:03:13;1019.3;;;15.8;65.7
41230;BME280;26964;50.428;19.218;2023-06-26T05:04:13;1019.3;;;15.9;65.7
41230;BME280;26964;50.428;19.218;2023-06-26T05:05:13;1019.3;;;15.9;65.7
41230;BME280;26964;50.428;19.218;2023-06-26T05:06:13;1019.3;;;15.9;65.6
41230;BME280;26964;50.428;19.218;2023-06-26T05:07:13;1019.2;;;15.9;65.7
41230;BME280;26964;50.428;19.218;2023-06-26T05:08:14;1019.2;;;16.0;65.6
41230;BME280;26964;50.428;19.218;2023-06-26T05:09:13;1019.3;;;16.0;65.7
41230;BME280;26964;50.428;19.218;2023-06-26T05:10:13;1019.2;;;16.0;65.6
41230;BME280;26964;50.428;19.218;2023-06-26T05:11:13;1019.3;;;16.0;65.6
41230;BME280;26964;50.428;19.218;2023-06-26T05:12:12;1019.2;;;16.1;65.6
41230;BME280;26964;50.428;19.218;2023-06-26T05:13:13;1019.2;;;16.1;65.6
41230;BME280;26964;50.428;19.218;2023-06-26T05:14:13;1019.3;;;16.1;65.6
41230;BME280;26964;50.428;19.218;2023-06-26T05:15:14;1019.3;;;16.2;65.6
41230;BME280;26964;50.428;19.218;2023-06-26T05:16:13;1019.3;;;16.2;65.6
41230;BME280;26964;50.428;19.218;2023-06-26T05:17:14;1019.3;;;16.2;65.6
41230;BME280;26964;50.428;19.218;2023-06-26T05:18:12;1019.3;;;16.3;65.6
41230;BME280;26964;50.428;19.218;2023-06-26T05:19:13;1019.3;;;16.3;65.6
41230;BME280;26964;50.428;19.218;2023-06-26T05:20:12;1019.3;;;16.3;65.6
41230;BME280;26964;50.428;19.218;2023-06-26T05:21:13;1019.3;;;16.3;65.6
41230;BME280;26964;50.428;19.218;2023-06-26T05:22:12;1019.2;;;16.4;65.6
41230;BME280;26964;50.428;19.218;2023-06-26T05:23:12;1019.3;;;16.4;65.6
41230;BME280;26964;50.428;19.218;2023-06-26T05:24:13;1019.3;;;16.4;65.5
41230;BME280;26964;50.428;19.218;2023-06-26T05:25:13;1019.3;;;16.4;65.5
41230;BME280;26964;50.428;19.218;2023-06-26T05:26:12;1019.3;;;16.5;65.5
41230;BME280;26964;50.428;19.218;2023-06-26T05:27:13;1019.3;;;16.5;65.5
41230;BME280;26964;50.428;19.218;2023-06-26T05:28:13;1019.4;;;16.5;65.5
41230;BME280;26964;50.428;19.218;2023-06-26T05:29:13;1019.3;;;16.6;65.5
41230;BME280;26964;50.428;19.218;2023-06-26T05:30:13;1019.3;;;16.6;65.5
41230;BME280;26964;50.428;19.218;2023-06-26T05:31:13;1019.3;;;16.6;65.4